Time,TemperatureF,DewpointF,PressureIn,WindDirection,WindDirectionDegrees,WindSpeedMPH,WindSpeedGustMPH,Humidity,HourlyPrecipIn,Conditions,Clouds,dailyrainin,SoftwareType,DateUTC
2013-01-16 00:04:00,12.4,0.0,31.78,NW,315,3.0,5.0,57,0.00,,,0.00,meteohub,2013-01-16 07:04:00,
2013-01-16 00:10:00,12.4,0.0,31.78,SW,225,1.0,5.0,57,0.00,,,0.00,meteohub,2013-01-16 07:10:00,
2013-01-16 00:15:00,12.4,0.0,31.78,West,270,0.0,5.0,57,0.00,,,0.00,meteohub,2013-01-16 07:15:00,
2013-01-16 00:21:00,12.4,0.0,31.78,West,270,0.0,4.0,57,0.00,,,0.00,meteohub,2013-01-16 07:21:00,
2013-01-16 00:27:00,12.4,0.0,31.79,NW,315,1.0,2.0,57,0.00,,,0.00,meteohub,2013-01-16 07:27:00,
2013-01-16 00:32:00,12.4,0.0,31.78,NW,315,2.0,2.0,57,0.00,,,0.00,meteohub,2013-01-16 07:32:00,
2013-01-16 00:37:00,12.4,0.0,31.78,West,270,0.0,2.0,57,0.00,,,0.00,meteohub,2013-01-16 07:37:00,
2013-01-16 00:42:00,12.4,0.0,31.79,NW,315,0.0,2.0,57,0.00,,,0.00,meteohub,2013-01-16 07:42:00,
2013-01-16 00:47:00,12.4,0.0,31.79,West,270,0.0,2.0,57,0.00,,,0.00,meteohub,2013-01-16 07:47:00,
2013-01-16 00:52:00,12.2,0.0,31.79,NW,315,0.0,0.0,57,0.00,,,0.00,meteohub,2013-01-16 07:52:00,
2013-01-16 00:57:00,12.2,0.0,31.79,West,270,0.0,0.0,57,0.00,,,0.00,meteohub,2013-01-16 07:57:00,
2013-01-16 01:02:00,12.0,0.1,31.79,NW,315,0.0,0.0,58,0.00,,,0.00,meteohub,2013-01-16 08:02:00,
2013-01-16 01:07:00,12.0,0.1,31.79,NW,315,0.0,0.0,58,0.00,,,0.00,meteohub,2013-01-16 08:07:00,
2013-01-16 01:12:00,11.3,-0.2,31.79,West,270,0.0,0.0,59,0.00,,,0.00,meteohub,2013-01-16 08:12:00,
2013-01-16 01:17:00,10.9,-0.6,31.79,West,270,0.0,0.0,59,0.00,,,0.00,meteohub,2013-01-16 08:17:00,
2013-01-16 01:23:00,10.8,-0.8,31.78,West,270,0.0,0.0,59,0.00,,,0.00,meteohub,2013-01-16 08:23:00,
2013-01-16 01:29:00,10.6,-0.9,31.79,West,270,0.0,0.0,59,0.00,,,0.00,meteohub,2013-01-16 08:29:00,
2013-01-16 01:34:00,10.4,-0.8,31.79,NW,315,0.0,0.0,60,0.00,,,0.00,meteohub,2013-01-16 08:34:00,
2013-01-16 01:40:00,10.2,-2.4,31.79,West,270,0.0,0.0,56,0.00,,,0.00,meteohub,2013-01-16 08:40:00,
2013-01-16 01:45:00,10.0,-2.6,31.79,West,270,2.0,3.0,56,0.00,,,0.00,meteohub,2013-01-16 08:45:00,
2013-01-16 01:51:00,10.4,-0.4,31.80,NW,315,0.0,3.0,61,0.00,,,0.00,meteohub,2013-01-16 08:51:00,
2013-01-16 01:56:00,10.4,-0.4,31.80,West,270,2.0,2.0,61,0.00,,,0.00,meteohub,2013-01-16 08:56:00,
2013-01-16 02:02:00,10.4,-0.4,31.80,NW,315,0.0,2.0,61,0.00,,,0.00,meteohub,2013-01-16 09:02:00,
2013-01-16 02:07:00,10.2,-2.0,31.80,West,270,0.0,2.0,57,0.00,,,0.00,meteohub,2013-01-16 09:07:00,
2013-01-16 02:12:00,9.9,-2.7,31.80,West,270,2.0,2.0,56,0.00,,,0.00,meteohub,2013-01-16 09:12:00,
2013-01-16 02:17:00,9.5,-3.1,31.80,West,270,2.0,2.0,56,0.00,,,0.00,meteohub,2013-01-16 09:17:00,
2013-01-16 02:22:00,9.1,-2.9,31.80,West,270,0.0,2.0,57,0.00,,,0.00,meteohub,2013-01-16 09:22:00,
2013-01-16 02:27:00,8.8,-3.3,31.81,West,270,0.0,2.0,57,0.00,,,0.00,meteohub,2013-01-16 09:27:00,
2013-01-16 02:32:00,8.6,-3.5,31.81,West,270,0.0,2.0,57,0.00,,,0.00,meteohub,2013-01-16 09:32:00,
2013-01-16 02:37:00,8.2,-3.5,31.81,SW,225,3.0,3.0,58,0.00,,,0.00,meteohub,2013-01-16 09:37:00,
2013-01-16 02:43:00,7.5,-4.2,31.81,West,270,2.0,4.0,58,0.00,,,0.00,meteohub,2013-01-16 09:43:00,
2013-01-16 02:49:00,7.2,-4.5,31.81,West,270,2.0,4.0,58,0.00,,,0.00,meteohub,2013-01-16 09:49:00,
2013-01-16 02:54:00,7.2,-4.2,31.81,NW,315,2.0,4.0,59,0.00,,,0.00,meteohub,2013-01-16 09:54:00,
2013-01-16 03:00:00,7.2,-3.5,31.81,West,270,4.0,4.0,61,0.00,,,0.00,meteohub,2013-01-16 10:00:00,
2013-01-16 03:05:00,7.2,-3.5,31.81,West,270,4.0,4.0,61,0.00,,,0.00,meteohub,2013-01-16 10:05:00,
2013-01-16 03:11:00,7.7,-2.2,31.81,West,270,3.0,4.0,63,0.00,,,0.00,meteohub,2013-01-16 10:11:00,
2013-01-16 03:16:00,7.7,-2.2,31.81,West,270,4.0,4.0,63,0.00,,,0.00,meteohub,2013-01-16 10:16:00,
2013-01-16 03:22:00,7.9,-2.0,31.81,NW,315,0.0,4.0,63,0.00,,,0.00,meteohub,2013-01-16 10:22:00,
2013-01-16 03:27:00,8.2,-1.5,31.80,NW,315,2.0,4.0,64,0.00,,,0.00,meteohub,2013-01-16 10:27:00,
2013-01-16 03:32:00,8.4,-1.3,31.81,West,270,0.0,4.0,64,0.00,,,0.00,meteohub,2013-01-16 10:32:00,
2013-01-16 03:37:00,8.6,-1.5,31.81,NW,315,0.0,4.0,63,0.00,,,0.00,meteohub,2013-01-16 10:37:00,
2013-01-16 03:42:00,8.6,-1.5,31.81,West,270,2.0,4.0,63,0.00,,,0.00,meteohub,2013-01-16 10:42:00,
2013-01-16 03:47:00,8.1,-1.8,31.81,NW,315,1.0,3.0,63,0.00,,,0.00,meteohub,2013-01-16 10:47:00,
2013-01-16 03:52:00,7.9,-2.0,31.80,West,270,0.0,3.0,63,0.00,,,0.00,meteohub,2013-01-16 10:52:00,
2013-01-16 03:58:00,7.9,-2.0,31.80,West,270,3.0,3.0,63,0.00,,,0.00,meteohub,2013-01-16 10:58:00,
2013-01-16 04:03:00,8.1,-1.7,31.80,West,270,0.0,3.0,64,0.00,,,0.00,meteohub,2013-01-16 11:03:00,
2013-01-16 04:09:00,8.2,-1.5,31.80,West,270,2.0,3.0,64,0.00,,,0.00,meteohub,2013-01-16 11:09:00,
2013-01-16 04:14:00,7.9,-1.8,31.80,West,270,0.0,3.0,64,0.00,,,0.00,meteohub,2013-01-16 11:14:00,
2013-01-16 04:20:00,7.5,-2.0,31.80,West,270,0.0,2.0,64,0.00,,,0.00,meteohub,2013-01-16 11:20:00,
2013-01-16 04:26:00,7.2,-2.4,31.79,SW,225,0.0,2.0,64,0.00,,,0.00,meteohub,2013-01-16 11:26:00,
2013-01-16 04:31:00,7.0,-2.6,31.80,West,270,0.0,2.0,64,0.00,,,0.00,meteohub,2013-01-16 11:31:00,
2013-01-16 04:37:00,7.0,-2.6,31.80,West,270,0.0,2.0,64,0.00,,,0.00,meteohub,2013-01-16 11:37:00,
2013-01-16 04:42:00,6.8,-2.7,31.79,West,270,2.0,2.0,64,0.00,,,0.00,meteohub,2013-01-16 11:42:00,
2013-01-16 04:47:00,7.2,-2.4,31.78,West,270,0.0,2.0,64,0.00,,,0.00,meteohub,2013-01-16 11:47:00,
2013-01-16 04:52:00,7.3,-2.0,31.78,West,270,2.0,3.0,65,0.00,,,0.00,meteohub,2013-01-16 11:52:00,
2013-01-16 04:57:00,7.7,-1.7,31.78,WSW,248,3.0,3.0,65,0.00,,,0.00,meteohub,2013-01-16 11:57:00,
2013-01-16 05:03:00,7.9,-1.5,31.78,West,270,3.0,3.0,65,0.00,,,0.00,meteohub,2013-01-16 12:03:00,
2013-01-16 05:09:00,8.8,-0.6,31.78,SW,225,2.0,3.0,65,0.00,,,0.00,meteohub,2013-01-16 12:09:00,
2013-01-16 05:14:00,9.0,-0.4,31.78,NW,315,2.0,4.0,65,0.00,,,0.00,meteohub,2013-01-16 12:14:00,
2013-01-16 05:20:00,9.1,-0.2,31.78,NW,315,2.0,4.0,65,0.00,,,0.00,meteohub,2013-01-16 12:20:00,
2013-01-16 05:25:00,9.1,-0.2,31.77,West,270,2.0,2.0,65,0.00,,,0.00,meteohub,2013-01-16 12:25:00,
2013-01-16 05:31:00,9.5,0.1,31.78,NW,315,0.0,2.0,65,0.00,,,0.00,meteohub,2013-01-16 12:31:00,
2013-01-16 05:36:00,9.7,0.3,31.78,West,270,2.0,2.0,65,0.00,,,0.00,meteohub,2013-01-16 12:36:00,
2013-01-16 05:41:00,9.5,-0.2,31.78,West,270,2.0,2.0,64,0.00,,,0.00,meteohub,2013-01-16 12:41:00,
2013-01-16 05:47:00,9.9,0.5,31.78,SW,225,4.0,4.0,65,0.00,,,0.00,meteohub,2013-01-16 12:47:00,
2013-01-16 05:52:00,10.6,2.5,31.79,NW,315,3.0,4.0,69,0.00,,,0.00,meteohub,2013-01-16 12:52:00,
2013-01-16 05:57:00,11.1,3.2,31.79,WNW,293,2.0,4.0,70,0.00,,,0.00,meteohub,2013-01-16 12:57:00,
2013-01-16 06:03:00,12.2,4.3,31.78,West,270,2.0,5.0,70,0.00,,,0.00,meteohub,2013-01-16 13:03:00,
2013-01-16 06:08:00,12.6,4.6,31.79,NW,315,2.0,6.0,70,0.00,,,0.00,meteohub,2013-01-16 13:08:00,
2013-01-16 06:14:00,12.7,4.8,31.79,West,270,3.0,6.0,70,0.00,,,0.00,meteohub,2013-01-16 13:14:00,
2013-01-16 06:19:00,12.7,4.8,31.79,West,270,3.0,6.0,70,0.00,,,0.00,meteohub,2013-01-16 13:19:00,
2013-01-16 06:25:00,12.7,4.8,31.79,West,270,3.0,6.0,70,0.00,,,0.00,meteohub,2013-01-16 13:25:00,
2013-01-16 06:30:00,12.9,5.0,31.79,West,270,2.0,6.0,70,0.00,,,0.00,meteohub,2013-01-16 13:30:00,
2013-01-16 06:36:00,12.9,5.0,31.78,West,270,2.0,4.0,70,0.00,,,0.00,meteohub,2013-01-16 13:36:00,
2013-01-16 06:41:00,12.9,5.0,31.78,SW,225,5.0,5.0,70,0.00,,,0.00,meteohub,2013-01-16 13:41:00,
2013-01-16 06:46:00,13.3,5.4,31.78,West,270,4.0,5.0,70,0.00,,,0.00,meteohub,2013-01-16 13:46:00,
2013-01-16 06:52:00,13.6,5.7,31.79,West,270,2.0,5.0,70,0.00,,,0.00,meteohub,2013-01-16 13:52:00,
2013-01-16 06:57:00,13.6,5.7,31.78,West,270,2.0,5.0,70,0.00,,,0.00,meteohub,2013-01-16 13:57:00,
2013-01-16 07:02:00,13.5,5.5,31.78,West,270,2.0,5.0,70,0.00,,,0.00,meteohub,2013-01-16 14:02:00,
2013-01-16 07:07:00,13.5,5.5,31.79,West,270,2.0,5.0,70,0.00,,,0.00,meteohub,2013-01-16 14:07:00,
2013-01-16 07:12:00,12.9,4.6,31.79,West,270,2.0,3.0,69,0.00,,,0.00,meteohub,2013-01-16 14:12:00,
2013-01-16 07:17:00,12.7,4.5,31.79,West,270,0.0,2.0,69,0.00,,,0.00,meteohub,2013-01-16 14:17:00,
2013-01-16 07:22:00,12.4,4.1,31.80,West,270,0.0,2.0,69,0.00,,,0.00,meteohub,2013-01-16 14:22:00,
2013-01-16 07:27:00,11.8,3.9,31.79,West,270,2.0,2.0,70,0.00,,,0.00,meteohub,2013-01-16 14:27:00,
2013-01-16 07:32:00,11.5,3.6,31.80,West,270,0.0,2.0,70,0.00,,,0.00,meteohub,2013-01-16 14:32:00,
2013-01-16 07:38:00,11.1,3.2,31.80,West,270,2.0,2.0,70,0.00,,,0.00,meteohub,2013-01-16 14:38:00,
2013-01-16 07:44:00,11.3,3.4,31.80,NW,315,0.0,2.0,70,0.00,,,0.00,meteohub,2013-01-16 14:44:00,
2013-01-16 07:49:00,11.8,4.3,31.80,West,270,0.0,2.0,71,0.00,,,0.00,meteohub,2013-01-16 14:49:00,
2013-01-16 07:55:00,12.6,4.6,31.80,West,270,0.0,2.0,70,0.00,,,0.00,meteohub,2013-01-16 14:55:00,
2013-01-16 08:00:00,13.1,5.5,31.80,West,270,0.0,0.0,71,0.00,,,0.00,meteohub,2013-01-16 15:00:00,
2013-01-16 08:06:00,13.8,6.1,31.81,NW,315,2.0,4.0,71,0.00,,,0.00,meteohub,2013-01-16 15:06:00,
2013-01-16 08:12:00,14.7,6.8,31.81,NW,315,0.0,4.0,70,0.00,,,0.00,meteohub,2013-01-16 15:12:00,
2013-01-16 08:17:00,15.1,6.8,31.81,West,270,2.0,4.0,69,0.00,,,0.00,meteohub,2013-01-16 15:17:00,
2013-01-16 08:22:00,15.6,7.3,31.81,NW,315,2.0,3.0,69,0.00,,,0.00,meteohub,2013-01-16 15:22:00,
2013-01-16 08:27:00,16.5,7.5,31.81,NW,315,0.0,3.0,67,0.00,,,0.00,meteohub,2013-01-16 15:27:00,
2013-01-16 08:32:00,18.0,8.2,31.81,West,270,3.0,3.0,65,0.00,,,0.00,meteohub,2013-01-16 15:32:00,
2013-01-16 08:37:00,19.0,9.0,31.81,West,270,4.0,7.0,64,0.00,,,0.00,meteohub,2013-01-16 15:37:00,
2013-01-16 08:42:00,20.3,10.8,31.81,West,270,3.0,7.0,66,0.00,,,0.00,meteohub,2013-01-16 15:42:00,
2013-01-16 08:47:00,21.7,11.5,31.81,NW,315,2.0,7.0,64,0.00,,,0.00,meteohub,2013-01-16 15:47:00,
2013-01-16 08:52:00,23.2,12.0,31.82,West,270,2.0,7.0,62,0.00,,,0.00,meteohub,2013-01-16 15:52:00,
2013-01-16 08:57:00,24.3,12.4,31.82,WNW,293,1.0,5.0,60,0.00,,,0.00,meteohub,2013-01-16 15:57:00,
2013-01-16 09:02:00,25.0,12.4,31.82,West,270,2.0,2.0,58,0.00,,,0.00,meteohub,2013-01-16 16:02:00,
2013-01-16 09:07:00,25.0,12.4,31.82,West,270,2.0,2.0,58,0.00,,,0.00,meteohub,2013-01-16 16:07:00,
2013-01-16 09:13:00,27.0,12.6,31.82,WSW,248,2.0,2.0,54,0.00,,,0.00,meteohub,2013-01-16 16:13:00,
2013-01-16 09:18:00,27.5,12.2,31.82,West,270,4.0,4.0,52,0.00,,,0.00,meteohub,2013-01-16 16:18:00,
2013-01-16 09:24:00,27.9,11.7,31.82,West,270,5.0,5.0,50,0.00,,,0.00,meteohub,2013-01-16 16:24:00,
2013-01-16 09:29:00,28.0,11.3,31.82,NW,315,4.0,4.0,49,0.00,,,0.00,meteohub,2013-01-16 16:29:00,
2013-01-16 09:35:00,28.6,13.1,31.82,NW,315,4.0,6.0,52,0.00,,,0.00,meteohub,2013-01-16 16:35:00,
2013-01-16 09:40:00,28.9,13.1,31.82,NW,315,2.0,6.0,51,0.00,,,0.00,meteohub,2013-01-16 16:40:00,
2013-01-16 09:45:00,29.7,13.8,31.82,NW,315,4.0,6.0,51,0.00,,,0.00,meteohub,2013-01-16 16:45:00,
2013-01-16 09:50:00,30.2,13.3,31.83,NW,315,4.0,6.0,49,0.00,,,0.00,meteohub,2013-01-16 16:50:00,
2013-01-16 09:56:00,30.4,13.1,31.83,NW,315,4.0,8.0,48,0.00,,,0.00,meteohub,2013-01-16 16:56:00,
2013-01-16 10:02:00,31.1,13.6,31.82,NE,45,1.0,8.0,48,0.00,,,0.00,meteohub,2013-01-16 17:02:00,
2013-01-16 10:07:00,32.2,14.2,31.83,NW,315,3.0,8.0,47,0.00,,,0.00,meteohub,2013-01-16 17:07:00,
2013-01-16 10:12:00,32.5,14.0,31.83,NW,315,8.0,8.0,46,0.00,,,0.00,meteohub,2013-01-16 17:12:00,
2013-01-16 10:17:00,32.4,13.5,31.82,NW,315,5.0,8.0,45,0.00,,,0.00,meteohub,2013-01-16 17:17:00,
2013-01-16 10:22:00,32.4,13.5,31.83,West,270,6.0,8.0,45,0.00,,,0.00,meteohub,2013-01-16 17:22:00,
2013-01-16 10:27:00,32.2,13.3,31.83,West,270,7.0,8.0,45,0.00,,,0.00,meteohub,2013-01-16 17:27:00,
2013-01-16 10:32:00,31.6,13.3,31.83,West,270,5.0,8.0,46,0.00,,,0.00,meteohub,2013-01-16 17:32:00,
2013-01-16 10:37:00,31.6,13.6,31.83,West,270,7.0,8.0,47,0.00,,,0.00,meteohub,2013-01-16 17:37:00,
2013-01-16 10:42:00,31.5,13.6,31.83,NW,315,4.0,9.0,47,0.00,,,0.00,meteohub,2013-01-16 17:42:00,
2013-01-16 10:47:00,31.8,14.4,31.83,NW,315,4.0,9.0,48,0.00,,,0.00,meteohub,2013-01-16 17:47:00,
2013-01-16 10:52:00,32.2,13.6,31.82,North,0,6.0,9.0,46,0.00,,,0.00,meteohub,2013-01-16 17:52:00,
2013-01-16 10:58:00,32.5,14.0,31.82,WNW,293,6.0,10.0,46,0.00,,,0.00,meteohub,2013-01-16 17:58:00,
2013-01-16 11:03:00,32.9,14.4,31.82,NW,315,4.0,10.0,46,0.00,,,0.00,meteohub,2013-01-16 18:03:00,
2013-01-16 11:08:00,34.3,14.7,31.82,NW,315,3.0,10.0,44,0.00,,,0.00,meteohub,2013-01-16 18:08:00,
2013-01-16 11:14:00,35.4,15.1,31.81,NW,315,6.0,9.0,43,0.00,,,0.00,meteohub,2013-01-16 18:14:00,
2013-01-16 11:19:00,36.0,14.5,31.81,NW,315,6.0,8.0,41,0.00,,,0.00,meteohub,2013-01-16 18:19:00,
2013-01-16 11:24:00,36.7,15.3,31.81,West,270,7.0,8.0,41,0.00,,,0.00,meteohub,2013-01-16 18:24:00,
2013-01-16 11:30:00,37.2,15.6,31.81,NW,315,4.0,7.0,41,0.00,,,0.00,meteohub,2013-01-16 18:30:00,
2013-01-16 11:36:00,37.6,18.1,31.81,West,270,4.0,7.0,45,0.00,,,0.00,meteohub,2013-01-16 18:36:00,
2013-01-16 11:41:00,38.1,18.7,31.81,NE,45,4.0,5.0,45,0.00,,,0.00,meteohub,2013-01-16 18:41:00,
2013-01-16 11:46:00,38.5,18.5,31.81,North,0,8.0,8.0,44,0.00,,,0.00,meteohub,2013-01-16 18:46:00,
2013-01-16 11:52:00,38.5,18.5,31.81,West,270,3.0,8.0,44,0.00,,,0.00,meteohub,2013-01-16 18:52:00,
2013-01-16 11:57:00,39.2,18.0,31.81,NE,45,4.0,8.0,42,0.00,,,0.00,meteohub,2013-01-16 18:57:00,
2013-01-16 12:02:00,39.4,17.6,31.81,North,0,2.0,8.0,41,0.00,,,0.00,meteohub,2013-01-16 19:02:00,
2013-01-16 12:07:00,39.2,17.4,31.81,NNW,338,5.0,8.0,41,0.00,,,0.00,meteohub,2013-01-16 19:07:00,
2013-01-16 12:12:00,39.0,17.8,31.81,North,0,5.0,8.0,42,0.00,,,0.00,meteohub,2013-01-16 19:12:00,
2013-01-16 12:17:00,39.2,16.9,31.81,North,0,4.0,8.0,40,0.00,,,0.00,meteohub,2013-01-16 19:17:00,
2013-01-16 12:22:00,39.4,17.1,31.81,NW,315,4.0,8.0,40,0.00,,,0.00,meteohub,2013-01-16 19:22:00,
2013-01-16 12:28:00,39.4,17.1,31.81,West,270,5.0,8.0,40,0.00,,,0.00,meteohub,2013-01-16 19:28:00,
2013-01-16 12:34:00,39.0,17.2,31.81,NW,315,8.0,8.0,41,0.00,,,0.00,meteohub,2013-01-16 19:34:00,
2013-01-16 12:40:00,39.0,17.8,31.81,NW,315,6.0,8.0,42,0.00,,,0.00,meteohub,2013-01-16 19:40:00,
2013-01-16 12:45:00,39.7,18.5,31.81,NW,315,8.0,8.0,42,0.00,,,0.00,meteohub,2013-01-16 19:45:00,
2013-01-16 12:51:00,40.3,19.0,31.81,East,90,4.0,8.0,42,0.00,,,0.00,meteohub,2013-01-16 19:51:00,
2013-01-16 12:56:00,40.1,18.3,31.81,North,0,6.0,8.0,41,0.00,,,0.00,meteohub,2013-01-16 19:56:00,
2013-01-16 13:02:00,39.9,17.6,31.81,West,270,4.0,8.0,40,0.00,,,0.00,meteohub,2013-01-16 20:02:00,
2013-01-16 13:07:00,39.9,17.6,31.80,West,270,4.0,7.0,40,0.00,,,0.00,meteohub,2013-01-16 20:07:00,
2013-01-16 13:12:00,39.2,17.4,31.80,West,270,4.0,7.0,41,0.00,,,0.00,meteohub,2013-01-16 20:12:00,
2013-01-16 13:17:00,39.0,18.5,31.80,WNW,293,4.0,7.0,43,0.00,,,0.00,meteohub,2013-01-16 20:17:00,
2013-01-16 13:22:00,39.0,18.5,31.80,NW,315,4.0,8.0,43,0.00,,,0.00,meteohub,2013-01-16 20:22:00,
2013-01-16 13:27:00,39.0,19.4,31.80,NNW,338,4.0,8.0,45,0.00,,,0.00,meteohub,2013-01-16 20:27:00,
2013-01-16 13:32:00,38.8,19.4,31.80,NE,45,5.0,8.0,45,0.00,,,0.00,meteohub,2013-01-16 20:32:00,
2013-01-16 13:37:00,38.3,18.9,31.80,West,270,4.0,8.0,45,0.00,,,0.00,meteohub,2013-01-16 20:37:00,
2013-01-16 13:42:00,37.4,18.0,31.80,NW,315,4.0,8.0,45,0.00,,,0.00,meteohub,2013-01-16 20:42:00,
2013-01-16 13:47:00,37.0,15.4,31.80,NW,315,5.0,8.0,41,0.00,,,0.00,meteohub,2013-01-16 20:47:00,
2013-01-16 13:52:00,37.0,16.2,31.80,NW,315,6.0,8.0,42,0.00,,,0.00,meteohub,2013-01-16 20:52:00,
2013-01-16 13:57:00,36.9,16.0,31.81,West,270,4.0,7.0,42,0.00,,,0.00,meteohub,2013-01-16 20:57:00,
2013-01-16 14:02:00,36.7,15.8,31.81,SW,225,5.0,7.0,42,0.00,,,0.00,meteohub,2013-01-16 21:02:00,
2013-01-16 14:07:00,36.7,15.8,31.81,NW,315,8.0,8.0,42,0.00,,,0.00,meteohub,2013-01-16 21:07:00,
2013-01-16 14:12:00,36.5,15.6,31.81,North,0,5.0,8.0,42,0.00,,,0.00,meteohub,2013-01-16 21:12:00,
2013-01-16 14:17:00,36.3,15.4,31.81,NW,315,9.0,9.0,42,0.00,,,0.00,meteohub,2013-01-16 21:17:00,
2013-01-16 14:22:00,36.1,15.3,31.81,NNW,338,4.0,8.0,42,0.00,,,0.00,meteohub,2013-01-16 21:22:00,
2013-01-16 14:27:00,36.3,15.4,31.81,NNE,23,4.0,9.0,42,0.00,,,0.00,meteohub,2013-01-16 21:27:00,
2013-01-16 14:32:00,36.3,15.4,31.81,West,270,8.0,9.0,42,0.00,,,0.00,meteohub,2013-01-16 21:32:00,
2013-01-16 14:38:00,36.1,15.3,31.81,NW,315,7.0,8.0,42,0.00,,,0.00,meteohub,2013-01-16 21:38:00,
2013-01-16 14:43:00,36.0,15.1,31.81,North,0,4.0,8.0,42,0.00,,,0.00,meteohub,2013-01-16 21:43:00,
2013-01-16 14:49:00,36.0,15.1,31.81,NW,315,4.0,8.0,42,0.00,,,0.00,meteohub,2013-01-16 21:49:00,
2013-01-16 14:54:00,36.0,15.1,31.81,West,270,7.0,7.0,42,0.00,,,0.00,meteohub,2013-01-16 21:54:00,
2013-01-16 15:00:00,36.3,15.4,31.81,NNE,23,3.0,7.0,42,0.00,,,0.00,meteohub,2013-01-16 22:00:00,
2013-01-16 15:06:00,36.3,15.4,31.81,NNE,23,3.0,7.0,42,0.00,,,0.00,meteohub,2013-01-16 22:06:00,
2013-01-16 15:11:00,36.5,15.6,31.81,NW,315,4.0,5.0,42,0.00,,,0.00,meteohub,2013-01-16 22:11:00,
2013-01-16 15:16:00,35.6,14.7,31.81,North,0,5.0,6.0,42,0.00,,,0.00,meteohub,2013-01-16 22:16:00,
2013-01-16 15:22:00,34.7,14.5,31.81,North,0,3.0,6.0,43,0.00,,,0.00,meteohub,2013-01-16 22:22:00,
2013-01-16 15:27:00,34.2,14.0,31.81,NW,315,6.0,6.0,43,0.00,,,0.00,meteohub,2013-01-16 22:27:00,
2013-01-16 15:33:00,34.0,14.4,31.82,SW,225,6.0,8.0,44,0.00,,,0.00,meteohub,2013-01-16 22:33:00,
2013-01-16 15:39:00,34.3,14.7,31.82,East,90,4.0,8.0,44,0.00,,,0.00,meteohub,2013-01-16 22:39:00,
2013-01-16 15:44:00,34.5,14.4,31.82,NE,45,6.0,6.0,43,0.00,,,0.00,meteohub,2013-01-16 22:44:00,
2013-01-16 15:50:00,34.2,14.0,31.82,North,0,2.0,6.0,43,0.00,,,0.00,meteohub,2013-01-16 22:50:00,
2013-01-16 15:56:00,33.6,14.5,31.82,NNW,338,4.0,6.0,45,0.00,,,0.00,meteohub,2013-01-16 22:56:00,
2013-01-16 16:01:00,33.1,14.0,31.83,West,270,2.0,5.0,45,0.00,,,0.00,meteohub,2013-01-16 23:01:00,
2013-01-16 16:06:00,32.7,13.6,31.83,West,270,2.0,5.0,45,0.00,,,0.00,meteohub,2013-01-16 23:06:00,
2013-01-16 16:12:00,32.4,13.5,31.83,North,0,3.0,6.0,45,0.00,,,0.00,meteohub,2013-01-16 23:12:00,
2013-01-16 16:17:00,32.0,13.6,31.83,NW,315,2.0,6.0,46,0.00,,,0.00,meteohub,2013-01-16 23:17:00,
2013-01-16 16:22:00,31.5,13.6,31.83,NW,315,3.0,4.0,47,0.00,,,0.00,meteohub,2013-01-16 23:22:00,
2013-01-16 16:27:00,30.9,13.1,31.83,NW,315,2.0,4.0,47,0.00,,,0.00,meteohub,2013-01-16 23:27:00,
2013-01-16 16:32:00,30.4,13.1,31.83,NW,315,3.0,4.0,48,0.00,,,0.00,meteohub,2013-01-16 23:32:00,
2013-01-16 16:37:00,29.7,12.9,31.84,NW,315,4.0,5.0,49,0.00,,,0.00,meteohub,2013-01-16 23:37:00,
2013-01-16 16:43:00,28.9,12.2,31.84,West,270,2.0,5.0,49,0.00,,,0.00,meteohub,2013-01-16 23:43:00,
2013-01-16 16:49:00,28.2,9.7,31.84,West,270,2.0,5.0,45,0.00,,,0.00,meteohub,2013-01-16 23:49:00,
2013-01-16 16:54:00,27.5,9.5,31.84,West,270,3.0,5.0,46,0.00,,,0.00,meteohub,2013-01-16 23:54:00,
2013-01-16 16:59:00,27.1,9.5,31.84,NNW,338,3.0,4.0,47,0.00,,,0.00,meteohub,2013-01-16 23:59:00,
2013-01-16 17:05:00,27.0,9.5,31.84,West,270,3.0,6.0,47,0.00,,,0.00,meteohub,2013-01-17 00:05:00,
2013-01-16 17:10:00,26.4,9.9,31.84,West,270,4.0,6.0,49,0.00,,,0.00,meteohub,2013-01-17 00:10:00,
2013-01-16 17:16:00,26.2,10.2,31.85,West,270,4.0,5.0,50,0.00,,,0.00,meteohub,2013-01-17 00:16:00,
2013-01-16 17:21:00,26.1,10.0,31.85,West,270,3.0,5.0,50,0.00,,,0.00,meteohub,2013-01-17 00:21:00,
2013-01-16 17:26:00,25.9,9.9,31.85,SW,225,5.0,5.0,50,0.00,,,0.00,meteohub,2013-01-17 00:26:00,
2013-01-16 17:31:00,25.9,10.2,31.85,NW,315,4.0,6.0,51,0.00,,,0.00,meteohub,2013-01-17 00:31:00,
2013-01-16 17:37:00,25.9,10.2,31.86,West,270,5.0,6.0,51,0.00,,,0.00,meteohub,2013-01-17 00:37:00,
2013-01-16 17:42:00,25.7,9.7,31.86,West,270,2.0,6.0,50,0.00,,,0.00,meteohub,2013-01-17 00:42:00,
2013-01-16 17:47:00,25.5,9.9,31.86,West,270,4.0,6.0,51,0.00,,,0.00,meteohub,2013-01-17 00:47:00,
2013-01-16 17:52:00,25.3,9.7,31.86,NW,315,3.0,6.0,51,0.00,,,0.00,meteohub,2013-01-17 00:52:00,
2013-01-16 17:57:00,25.2,9.5,31.86,West,270,4.0,6.0,51,0.00,,,0.00,meteohub,2013-01-17 00:57:00,
2013-01-16 18:03:00,25.0,9.3,31.86,NW,315,2.0,6.0,51,0.00,,,0.00,meteohub,2013-01-17 01:03:00,
2013-01-16 18:09:00,24.6,9.9,31.87,SW,225,6.0,6.0,53,0.00,,,0.00,meteohub,2013-01-17 01:09:00,
2013-01-16 18:14:00,24.4,9.7,31.87,West,270,5.0,5.0,53,0.00,,,0.00,meteohub,2013-01-17 01:14:00,
2013-01-16 18:19:00,24.3,9.7,31.87,North,0,3.0,6.0,53,0.00,,,0.00,meteohub,2013-01-17 01:19:00,
2013-01-16 18:25:00,24.1,9.5,31.87,West,270,1.0,5.0,53,0.00,,,0.00,meteohub,2013-01-17 01:25:00,
2013-01-16 18:31:00,23.9,9.3,31.87,NW,315,2.0,4.0,53,0.00,,,0.00,meteohub,2013-01-17 01:31:00,
2013-01-16 18:37:00,23.5,9.0,31.87,West,270,1.0,4.0,53,0.00,,,0.00,meteohub,2013-01-17 01:37:00,
2013-01-16 18:42:00,23.2,8.6,31.87,NW,315,1.0,3.0,53,0.00,,,0.00,meteohub,2013-01-17 01:42:00,
2013-01-16 18:47:00,23.2,9.0,31.87,West,270,3.0,3.0,54,0.00,,,0.00,meteohub,2013-01-17 01:47:00,
2013-01-16 18:52:00,23.0,8.8,31.87,NW,315,4.0,4.0,54,0.00,,,0.00,meteohub,2013-01-17 01:52:00,
2013-01-16 18:58:00,23.2,9.0,31.88,West,270,2.0,5.0,54,0.00,,,0.00,meteohub,2013-01-17 01:58:00,
2013-01-16 19:03:00,23.2,9.0,31.88,West,270,2.0,5.0,54,0.00,,,0.00,meteohub,2013-01-17 02:03:00,
2013-01-16 19:09:00,22.8,9.1,31.88,West,270,3.0,5.0,55,0.00,,,0.00,meteohub,2013-01-17 02:09:00,
2013-01-16 19:14:00,22.5,8.8,31.87,West,270,4.0,4.0,55,0.00,,,0.00,meteohub,2013-01-17 02:14:00,
2013-01-16 19:20:00,22.5,8.8,31.87,NW,315,2.0,4.0,55,0.00,,,0.00,meteohub,2013-01-17 02:20:00,
2013-01-16 19:26:00,22.3,9.0,31.88,West,270,3.0,4.0,56,0.00,,,0.00,meteohub,2013-01-17 02:26:00,
2013-01-16 19:31:00,22.1,8.4,31.87,SW,225,0.0,5.0,55,0.00,,,0.00,meteohub,2013-01-17 02:31:00,
2013-01-16 19:36:00,21.7,8.1,31.88,NW,315,0.0,5.0,55,0.00,,,0.00,meteohub,2013-01-17 02:36:00,
2013-01-16 19:42:00,21.4,8.1,31.88,NW,315,0.0,3.0,56,0.00,,,0.00,meteohub,2013-01-17 02:42:00,
2013-01-16 19:47:00,21.0,7.7,31.88,NW,315,0.0,0.0,56,0.00,,,0.00,meteohub,2013-01-17 02:47:00,
2013-01-16 19:52:00,20.5,7.3,31.88,NW,315,0.0,0.0,56,0.00,,,0.00,meteohub,2013-01-17 02:52:00,
2013-01-16 19:58:00,19.8,6.6,31.88,NNW,338,2.0,0.0,56,0.00,,,0.00,meteohub,2013-01-17 02:58:00,
2013-01-16 20:03:00,18.9,4.1,31.88,SE,135,0.0,2.0,52,0.00,,,0.00,meteohub,2013-01-17 03:03:00,
2013-01-16 20:08:00,18.3,3.6,31.88,SE,135,0.0,2.0,52,0.00,,,0.00,meteohub,2013-01-17 03:08:00,
2013-01-16 20:14:00,17.4,3.6,31.88,South,180,0.0,2.0,54,0.00,,,0.00,meteohub,2013-01-17 03:14:00,
2013-01-16 20:19:00,17.1,3.7,31.88,West,270,0.0,0.0,55,0.00,,,0.00,meteohub,2013-01-17 03:19:00,
2013-01-16 20:25:00,16.7,3.7,31.88,West,270,0.0,0.0,56,0.00,,,0.00,meteohub,2013-01-17 03:25:00,
2013-01-16 20:31:00,16.3,3.7,31.88,West,270,2.0,0.0,57,0.00,,,0.00,meteohub,2013-01-17 03:31:00,
2013-01-16 20:36:00,16.3,4.5,31.89,SW,225,0.0,2.0,59,0.00,,,0.00,meteohub,2013-01-17 03:36:00,
2013-01-16 20:41:00,16.2,3.9,31.89,SW,225,0.0,2.0,58,0.00,,,0.00,meteohub,2013-01-17 03:41:00,
2013-01-16 20:46:00,15.6,4.3,31.88,West,270,0.0,2.0,60,0.00,,,0.00,meteohub,2013-01-17 03:46:00,
2013-01-16 20:52:00,15.4,4.1,31.89,SW,225,0.0,0.0,60,0.00,,,0.00,meteohub,2013-01-17 03:52:00,
2013-01-16 20:57:00,14.9,3.6,31.89,SW,225,0.0,0.0,60,0.00,,,0.00,meteohub,2013-01-17 03:57:00,
2013-01-16 21:02:00,14.5,3.2,31.89,SW,225,0.0,0.0,60,0.00,,,0.00,meteohub,2013-01-17 04:02:00,
2013-01-16 21:07:00,14.5,3.2,31.89,SW,225,0.0,0.0,60,0.00,,,0.00,meteohub,2013-01-17 04:07:00,
2013-01-16 21:12:00,14.0,3.4,31.89,SW,225,0.0,0.0,62,0.00,,,0.00,meteohub,2013-01-17 04:12:00,
2013-01-16 21:17:00,13.6,3.4,31.89,SW,225,0.0,0.0,63,0.00,,,0.00,meteohub,2013-01-17 04:17:00,
2013-01-16 21:22:00,13.5,3.6,31.89,SW,225,0.0,0.0,64,0.00,,,0.00,meteohub,2013-01-17 04:22:00,
2013-01-16 21:27:00,13.1,3.2,31.89,SW,225,0.0,0.0,64,0.00,,,0.00,meteohub,2013-01-17 04:27:00,
2013-01-16 21:33:00,12.9,3.0,31.89,SW,225,0.0,0.0,64,0.00,,,0.00,meteohub,2013-01-17 04:33:00,
2013-01-16 21:39:00,12.7,3.2,31.89,SW,225,0.0,0.0,65,0.00,,,0.00,meteohub,2013-01-17 04:39:00,
2013-01-16 21:44:00,12.7,3.2,31.89,SW,225,0.0,0.0,65,0.00,,,0.00,meteohub,2013-01-17 04:44:00,
2013-01-16 21:50:00,12.7,3.6,31.89,WSW,248,0.0,0.0,66,0.00,,,0.00,meteohub,2013-01-17 04:50:00,
2013-01-16 21:55:00,12.7,3.6,31.89,South,180,0.0,0.0,66,0.00,,,0.00,meteohub,2013-01-17 04:55:00,
2013-01-16 22:00:00,12.4,3.2,31.89,South,180,0.0,0.0,66,0.00,,,0.00,meteohub,2013-01-17 05:00:00,
2013-01-16 22:01:00,12.4,3.2,31.89,South,180,0.0,0.0,66,0.00,,,0.00,meteohub,2013-01-17 05:01:00,
2013-01-16 22:02:00,12.4,3.2,31.89,South,180,0.0,0.0,66,0.00,,,0.00,meteohub,2013-01-17 05:02:00,
2013-01-16 22:07:00,12.2,3.0,31.90,South,180,0.0,0.0,66,0.00,,,0.00,meteohub,2013-01-17 05:07:00,
2013-01-16 22:12:00,12.0,3.2,31.90,South,180,0.0,0.0,67,0.00,,,0.00,meteohub,2013-01-17 05:12:00,
2013-01-16 22:17:00,12.0,3.2,31.89,SW,225,0.0,0.0,67,0.00,,,0.00,meteohub,2013-01-17 05:17:00,
2013-01-16 22:22:00,12.0,3.2,31.89,SW,225,0.0,0.0,67,0.00,,,0.00,meteohub,2013-01-17 05:22:00,
2013-01-16 22:27:00,12.0,3.6,31.90,SW,225,0.0,0.0,68,0.00,,,0.00,meteohub,2013-01-17 05:27:00,
2013-01-16 22:32:00,11.7,3.2,31.90,SW,225,0.0,0.0,68,0.00,,,0.00,meteohub,2013-01-17 05:32:00,
2013-01-16 22:38:00,11.5,3.0,31.90,SW,225,0.0,0.0,68,0.00,,,0.00,meteohub,2013-01-17 05:38:00,
2013-01-16 22:43:00,11.3,2.8,31.90,SW,225,0.0,0.0,68,0.00,,,0.00,meteohub,2013-01-17 05:43:00,
2013-01-16 22:49:00,11.5,3.0,31.90,SW,225,0.0,0.0,68,0.00,,,0.00,meteohub,2013-01-17 05:49:00,
2013-01-16 22:54:00,11.3,2.8,31.90,SW,225,0.0,0.0,68,0.00,,,0.00,meteohub,2013-01-17 05:54:00,
2013-01-16 22:59:00,11.1,2.7,31.90,SW,225,0.0,0.0,68,0.00,,,0.00,meteohub,2013-01-17 05:59:00,
2013-01-16 23:05:00,11.1,2.7,31.90,SW,225,0.0,0.0,68,0.00,,,0.00,meteohub,2013-01-17 06:05:00,
2013-01-16 23:10:00,10.8,2.7,31.91,West,270,0.0,0.0,69,0.00,,,0.00,meteohub,2013-01-17 06:10:00,
2013-01-16 23:15:00,10.6,2.5,31.91,West,270,0.0,0.0,69,0.00,,,0.00,meteohub,2013-01-17 06:15:00,
2013-01-16 23:21:00,10.4,2.3,31.91,South,180,0.0,0.0,69,0.00,,,0.00,meteohub,2013-01-17 06:21:00,
2013-01-16 23:26:00,10.0,0.7,31.91,South,180,0.0,0.0,65,0.00,,,0.00,meteohub,2013-01-17 06:26:00,
2013-01-16 23:31:00,9.9,0.5,31.91,South,180,0.0,0.0,65,0.00,,,0.00,meteohub,2013-01-17 06:31:00,
2013-01-16 23:36:00,9.5,-0.2,31.91,South,180,0.0,0.0,64,0.00,,,0.00,meteohub,2013-01-17 06:36:00,
2013-01-16 23:42:00,9.5,-0.2,31.91,South,180,0.0,0.0,64,0.00,,,0.00,meteohub,2013-01-17 06:42:00,
2013-01-16 23:47:00,9.3,0.0,31.91,South,180,0.0,0.0,65,0.00,,,0.00,meteohub,2013-01-17 06:47:00,
2013-01-16 23:52:00,9.3,0.0,31.91,SW,225,0.0,0.0,65,0.00,,,0.00,meteohub,2013-01-17 06:52:00,
2013-01-16 23:57:00,9.1,-0.2,31.91,South,180,0.0,0.0,65,0.00,,,0.00,meteohub,2013-01-17 06:57:00,